بیروت, لبنان

10:11 PM EET on مارس 05, 2015 (GMT +0200)
Beirut International | Change Station
CLOSE
Current Station
Airport
Location: Beirut,
Elevation: 62 ft
Nearby Weather Stations

Elev 62 ft 33.82 °N, 35.49 °E | Updated 11 minutes ago

Clear
صاف
59 °F
Feels Like 59 °F
N
5
باد متغير باد from شرق

امروز
High -- | Low -- °F
--% Chance of Precip.
دیروز
High -- | Low -- °F
Precip. -- در
6:02 AM 5:37 PM
ماه کامل, 100% visible
فشار 30.21 در
ديد -9999.0 مايل، ميل (در برابر كيلومتر
ابری
قطره شبنم 46 °F
رطوبت 63%
بارش باران 0.00 در
برف عمیق Not available.
مادون قرمز Not available.
Pollen Not available.
تمیزی هوا Not available.
Flu Activity Not available.
METAR OLBA 052000Z 08004KT CAVOK 15/08 Q1023

More Conditions Fewer Conditions

فشار 30.21 در
ديد -9999.0 مايل، ميل (در برابر كيلومتر
ابری
قطره شبنم 46 °F
رطوبت 63%
بارش باران 0.00 در
برف عمیق Not available.
مادون قرمز Not available.
Pollen Not available.
تمیزی هوا Not available.
Flu Activity Not available.
METAR OLBA 052000Z 08004KT CAVOK 15/08 Q1023

More Conditions Fewer Conditions

10-Day Weather Forecast

Almanac

ستاره شناسی

Mar. 05, 2015 Rise Set
وقت حقیقی
تاریک و روشن اجتماعی
تاریک روشن دریایی
شفق و فلق نجومی
ماه
میزان روشنایی روز
طول روز
Tomorrow will be .
, % of the Moon is Illuminated

Today's Extremes

Country Highs Country Lows

Community

WunderPhotos

Upload Photos

1,802,938 photos uploaded!

WunderBlogs® & News

Nearby

تمیزی هوا

  تمیزی هوا AQ Index آلاینده
Not available.

عمق برف

Station Depth Elevation

Earthquake Activity

شهر Distance Mag. Time & Date
Minimum magnitude displayed is 2.5.

Coastal Water Temperatures

منطقه درجه حرارت

Nearby Weather Stations